New Seabury, Massachusetts
Current Conditions -  °F | °C
As of 2:35 AM on Sunday 23 Nov 2014 (Local Time) from KFMH Reporting Station
Overcast Overcast  
Wind Chill: 38°   Ceiling: 9000
Heat Index: 46°   Visibility: 10mi
Dew Point: 34°   Wind: 26mph
Humidity: 62%   Direction: 240°WSW
Pressure: 30.1"   Gusts: 36mph
Location:  41.6167°N, 70.4906°W
Report Text: KFMH 230735Z AUTO 24023G31KT 10SM FEW075 OVC090 08/01 A3010 RMK AO2
Loading
Personal Weather Stations






























Interactive Weather Map New forecast layout! Learn more

10-Day Weather Forecast

Advertisements
Track Severe Weather on mobile